Ypenburg, Netherlands
Current Conditions -  °F | °C
As of 6:25 AM on Thursday 23 Oct 2014 (Local Time) from EHRD Reporting Station
Overcast Overcast  
Wind Chill: 54°   Ceiling: 2500
Heat Index: 54°   Visibility: 6mi
Dew Point: 50°   Wind: 9mph
Humidity: 88%   Direction: 210°SSW
Pressure: 30.15"   Gusts: NA
Location:  52.04°N, 4.37°E
Report Text: EHRD 230425Z AUTO 21008KT 9999 OVC025 12/10 Q1021 NOSIG
Loading
Personal Weather Stations






























Interactive Weather Map
Tropical Storm Tracking
New forecast layout! Learn more

10-Day Weather Forecast

Advertisements
Track Severe Weather on mobile